sensor_id;sensor_type;location;lat;lon;timestamp;P1;durP1;ratioP1;P2;durP2;ratioP2
2009;SDS011;1008;47.404;8.502;2022-10-16T00:01:50;4.13;;;2.37;;
2009;SDS011;1008;47.404;8.502;2022-10-16T00:04:16;3.10;;;2.17;;
2009;SDS011;1008;47.404;8.502;2022-10-16T00:06:43;3.70;;;2.67;;
2009;SDS011;1008;47.404;8.502;2022-10-16T00:09:10;4.80;;;2.43;;
2009;SDS011;1008;47.404;8.502;2022-10-16T00:11:38;6.10;;;2.73;;
2009;SDS011;1008;47.404;8.502;2022-10-16T00:14:06;4.50;;;2.53;;
2009;SDS011;1008;47.404;8.502;2022-10-16T00:16:36;3.80;;;2.70;;
2009;SDS011;1008;47.404;8.502;2022-10-16T00:19:03;2.77;;;2.50;;
2009;SDS011;1008;47.404;8.502;2022-10-16T00:21:31;3.13;;;2.60;;
2009;SDS011;1008;47.404;8.502;2022-10-16T00:23:58;6.00;;;2.60;;
2009;SDS011;1008;47.404;8.502;2022-10-16T00:26:27;3.67;;;2.30;;
2009;SDS011;1008;47.404;8.502;2022-10-16T00:28:55;2.57;;;2.20;;
2009;SDS011;1008;47.404;8.502;2022-10-16T00:31:22;3.07;;;2.70;;
2009;SDS011;1008;47.404;8.502;2022-10-16T00:33:51;3.13;;;2.60;;
2009;SDS011;1008;47.404;8.502;2022-10-16T00:36:18;2.80;;;2.17;;
2009;SDS011;1008;47.404;8.502;2022-10-16T00:38:46;2.60;;;2.40;;
2009;SDS011;1008;47.404;8.502;2022-10-16T00:41:17;3.50;;;2.30;;
2009;SDS011;1008;47.404;8.502;2022-10-16T00:43:45;3.93;;;2.30;;
2009;SDS011;1008;47.404;8.502;2022-10-16T00:46:15;4.07;;;2.63;;
2009;SDS011;1008;47.404;8.502;2022-10-16T00:48:45;3.30;;;2.30;;
2009;SDS011;1008;47.404;8.502;2022-10-16T00:51:16;3.13;;;2.20;;
2009;SDS011;1008;47.404;8.502;2022-10-16T00:53:45;2.87;;;2.37;;
2009;SDS011;1008;47.404;8.502;2022-10-16T00:56:12;5.47;;;2.47;;
2009;SDS011;1008;47.404;8.502;2022-10-16T00:58:39;2.90;;;2.40;;
2009;SDS011;1008;47.404;8.502;2022-10-16T01:01:06;4.90;;;2.43;;
2009;SDS011;1008;47.404;8.502;2022-10-16T01:03:33;2.87;;;2.07;;
2009;SDS011;1008;47.404;8.502;2022-10-16T01:06:05;4.73;;;2.70;;
2009;SDS011;1008;47.404;8.502;2022-10-16T01:08:47;3.20;;;2.60;;
2009;SDS011;1008;47.404;8.502;2022-10-16T01:11:22;2.90;;;2.27;;
2009;SDS011;1008;47.404;8.502;2022-10-16T01:13:53;2.70;;;2.43;;
2009;SDS011;1008;47.404;8.502;2022-10-16T01:16:25;3.80;;;2.50;;
2009;SDS011;1008;47.404;8.502;2022-10-16T01:19:00;2.30;;;2.10;;
2009;SDS011;1008;47.404;8.502;2022-10-16T01:21:32;8.13;;;2.90;;
2009;SDS011;1008;47.404;8.502;2022-10-16T01:24:15;2.70;;;2.47;;
2009;SDS011;1008;47.404;8.502;2022-10-16T01:26:58;2.83;;;2.60;;
2009;SDS011;1008;47.404;8.502;2022-10-16T01:29:39;2.73;;;2.00;;
2009;SDS011;1008;47.404;8.502;2022-10-16T01:32:15;3.27;;;2.30;;
2009;SDS011;1008;47.404;8.502;2022-10-16T01:34:48;3.37;;;2.57;;
2009;SDS011;1008;47.404;8.502;2022-10-16T01:37:23;3.63;;;2.60;;
2009;SDS011;1008;47.404;8.502;2022-10-16T01:39:58;4.03;;;2.43;;
2009;SDS011;1008;47.404;8.502;2022-10-16T01:42:28;3.20;;;2.30;;
2009;SDS011;1008;47.404;8.502;2022-10-16T01:44:58;2.80;;;2.30;;
2009;SDS011;1008;47.404;8.502;2022-10-16T01:47:26;3.20;;;2.70;;
2009;SDS011;1008;47.404;8.502;2022-10-16T01:49:56;3.70;;;2.50;;
2009;SDS011;1008;47.404;8.502;2022-10-16T01:52:25;3.47;;;2.50;;
2009;SDS011;1008;47.404;8.502;2022-10-16T01:54:54;3.47;;;2.77;;
2009;SDS011;1008;47.404;8.502;2022-10-16T01:57:23;3.10;;;2.30;;
2009;SDS011;1008;47.404;8.502;2022-10-16T01:59:53;2.70;;;2.20;;
2009;SDS011;1008;47.404;8.502;2022-10-16T02:02:23;2.53;;;2.33;;
2009;SDS011;1008;47.404;8.502;2022-10-16T02:04:55;5.80;;;3.00;;
2009;SDS011;1008;47.404;8.502;2022-10-16T02:07:25;3.70;;;2.40;;
2009;SDS011;1008;47.404;8.502;2022-10-16T02:09:53;3.83;;;3.00;;
2009;SDS011;1008;47.404;8.502;2022-10-16T02:12:23;3.73;;;2.57;;
2009;SDS011;1008;47.404;8.502;2022-10-16T02:14:53;5.97;;;2.50;;
2009;SDS011;1008;47.404;8.502;2022-10-16T02:17:20;5.70;;;2.80;;
2009;SDS011;1008;47.404;8.502;2022-10-16T02:19:48;2.87;;;2.03;;
2009;SDS011;1008;47.404;8.502;2022-10-16T02:22:18;3.23;;;2.13;;
2009;SDS011;1008;47.404;8.502;2022-10-16T02:24:50;3.10;;;2.27;;
2009;SDS011;1008;47.404;8.502;2022-10-16T02:27:21;3.43;;;2.43;;
2009;SDS011;1008;47.404;8.502;2022-10-16T02:29:52;2.30;;;2.10;;
2009;SDS011;1008;47.404;8.502;2022-10-16T02:32:27;4.60;;;2.07;;
2009;SDS011;1008;47.404;8.502;2022-10-16T02:34:57;2.40;;;2.13;;
2009;SDS011;1008;47.404;8.502;2022-10-16T02:37:26;2.93;;;2.30;;
2009;SDS011;1008;47.404;8.502;2022-10-16T02:39:54;2.90;;;1.90;;
2009;SDS011;1008;47.404;8.502;2022-10-16T02:42:26;3.43;;;1.90;;
2009;SDS011;1008;47.404;8.502;2022-10-16T02:44:56;6.07;;;2.80;;
2009;SDS011;1008;47.404;8.502;2022-10-16T02:47:22;3.47;;;2.00;;
2009;SDS011;1008;47.404;8.502;2022-10-16T02:49:49;3.43;;;1.97;;
2009;SDS011;1008;47.404;8.502;2022-10-16T02:52:16;6.53;;;3.33;;
2009;SDS011;1008;47.404;8.502;2022-10-16T02:54:42;3.80;;;2.20;;
2009;SDS011;1008;47.404;8.502;2022-10-16T02:57:09;2.17;;;1.80;;
2009;SDS011;1008;47.404;8.502;2022-10-16T02:59:36;2.57;;;2.30;;
2009;SDS011;1008;47.404;8.502;2022-10-16T03:02:04;3.00;;;2.17;;
2009;SDS011;1008;47.404;8.502;2022-10-16T03:04:31;2.27;;;1.83;;
2009;SDS011;1008;47.404;8.502;2022-10-16T03:06:58;2.67;;;2.17;;
2009;SDS011;1008;47.404;8.502;2022-10-16T03:09:25;3.30;;;2.33;;
2009;SDS011;1008;47.404;8.502;2022-10-16T03:11:51;2.33;;;2.13;;
2009;SDS011;1008;47.404;8.502;2022-10-16T03:14:18;2.20;;;1.67;;
2009;SDS011;1008;47.404;8.502;2022-10-16T03:16:45;5.13;;;2.63;;
2009;SDS011;1008;47.404;8.502;2022-10-16T03:19:13;2.50;;;2.00;;
2009;SDS011;1008;47.404;8.502;2022-10-16T03:21:41;2.87;;;2.17;;
2009;SDS011;1008;47.404;8.502;2022-10-16T03:24:08;3.63;;;2.57;;
2009;SDS011;1008;47.404;8.502;2022-10-16T03:26:35;3.03;;;2.33;;
2009;SDS011;1008;47.404;8.502;2022-10-16T03:29:02;3.93;;;2.33;;
2009;SDS011;1008;47.404;8.502;2022-10-16T03:31:28;2.80;;;2.40;;
2009;SDS011;1008;47.404;8.502;2022-10-16T03:33:55;3.50;;;2.57;;
2009;SDS011;1008;47.404;8.502;2022-10-16T03:36:24;5.40;;;2.20;;
2009;SDS011;1008;47.404;8.502;2022-10-16T03:38:50;1.97;;;1.73;;
2009;SDS011;1008;47.404;8.502;2022-10-16T03:41:17;2.73;;;1.87;;
2009;SDS011;1008;47.404;8.502;2022-10-16T03:43:44;2.80;;;2.00;;
2009;SDS011;1008;47.404;8.502;2022-10-16T03:46:11;2.30;;;1.97;;
2009;SDS011;1008;47.404;8.502;2022-10-16T03:48:37;2.33;;;2.10;;
2009;SDS011;1008;47.404;8.502;2022-10-16T03:51:04;2.10;;;1.80;;
2009;SDS011;1008;47.404;8.502;2022-10-16T03:53:33;2.90;;;1.90;;
2009;SDS011;1008;47.404;8.502;2022-10-16T03:55:59;3.10;;;2.10;;
2009;SDS011;1008;47.404;8.502;2022-10-16T03:58:26;2.30;;;2.03;;
2009;SDS011;1008;47.404;8.502;2022-10-16T04:00:53;2.33;;;1.87;;
2009;SDS011;1008;47.404;8.502;2022-10-16T04:03:19;3.23;;;2.23;;
2009;SDS011;1008;47.404;8.502;2022-10-16T04:05:46;4.83;;;2.10;;
2009;SDS011;1008;47.404;8.502;2022-10-16T04:08:13;2.90;;;2.30;;
2009;SDS011;1008;47.404;8.502;2022-10-16T04:10:43;2.10;;;1.90;;
2009;SDS011;1008;47.404;8.502;2022-10-16T04:13:10;2.20;;;1.97;;
2009;SDS011;1008;47.404;8.502;2022-10-16T04:15:36;2.77;;;2.30;;
2009;SDS011;1008;47.404;8.502;2022-10-16T04:18:03;3.00;;;1.80;;
2009;SDS011;1008;47.404;8.502;2022-10-16T04:20:31;3.10;;;2.10;;
2009;SDS011;1008;47.404;8.502;2022-10-16T04:22:58;2.93;;;2.63;;
2009;SDS011;1008;47.404;8.502;2022-10-16T04:25:25;3.90;;;2.73;;
2009;SDS011;1008;47.404;8.502;2022-10-16T04:27:53;2.77;;;2.47;;
2009;SDS011;1008;47.404;8.502;2022-10-16T04:30:21;4.23;;;3.00;;
2009;SDS011;1008;47.404;8.502;2022-10-16T04:32:48;4.47;;;2.97;;
2009;SDS011;1008;47.404;8.502;2022-10-16T04:35:15;4.73;;;3.00;;
2009;SDS011;1008;47.404;8.502;2022-10-16T04:37:42;2.80;;;2.40;;
2009;SDS011;1008;47.404;8.502;2022-10-16T04:40:09;3.50;;;3.13;;
2009;SDS011;1008;47.404;8.502;2022-10-16T04:42:36;3.00;;;2.20;;
2009;SDS011;1008;47.404;8.502;2022-10-16T04:45:05;3.10;;;2.37;;
2009;SDS011;1008;47.404;8.502;2022-10-16T04:47:33;2.53;;;2.10;;
2009;SDS011;1008;47.404;8.502;2022-10-16T04:49:59;3.30;;;2.30;;
2009;SDS011;1008;47.404;8.502;2022-10-16T04:52:27;1.83;;;1.73;;
2009;SDS011;1008;47.404;8.502;2022-10-16T04:54:56;3.03;;;2.20;;
2009;SDS011;1008;47.404;8.502;2022-10-16T04:57:26;1.80;;;1.40;;
2009;SDS011;1008;47.404;8.502;2022-10-16T04:59:53;1.40;;;1.30;;
2009;SDS011;1008;47.404;8.502;2022-10-16T05:02:21;2.03;;;1.17;;
2009;SDS011;1008;47.404;8.502;2022-10-16T05:04:48;2.37;;;1.63;;
2009;SDS011;1008;47.404;8.502;2022-10-16T05:07:14;1.70;;;1.20;;
2009;SDS011;1008;47.404;8.502;2022-10-16T05:09:41;2.37;;;1.40;;
2009;SDS011;1008;47.404;8.502;2022-10-16T05:12:08;1.80;;;1.63;;
2009;SDS011;1008;47.404;8.502;2022-10-16T05:14:34;1.80;;;1.30;;
2009;SDS011;1008;47.404;8.502;2022-10-16T05:17:01;1.67;;;1.33;;
2009;SDS011;1008;47.404;8.502;2022-10-16T05:19:29;4.20;;;1.40;;
2009;SDS011;1008;47.404;8.502;2022-10-16T05:21:56;1.40;;;1.23;;
2009;SDS011;1008;47.404;8.502;2022-10-16T05:24:23;2.27;;;1.30;;
2009;SDS011;1008;47.404;8.502;2022-10-16T05:26:50;1.60;;;1.40;;
2009;SDS011;1008;47.404;8.502;2022-10-16T05:29:17;3.13;;;1.53;;
2009;SDS011;1008;47.404;8.502;2022-10-16T05:31:44;2.00;;;1.40;;
2009;SDS011;1008;47.404;8.502;2022-10-16T05:34:10;1.27;;;1.17;;
2009;SDS011;1008;47.404;8.502;2022-10-16T05:36:38;1.60;;;1.37;;
2009;SDS011;1008;47.404;8.502;2022-10-16T05:39:05;2.63;;;1.90;;
2009;SDS011;1008;47.404;8.502;2022-10-16T05:41:32;2.00;;;1.80;;
2009;SDS011;1008;47.404;8.502;2022-10-16T05:43:59;2.60;;;1.73;;
2009;SDS011;1008;47.404;8.502;2022-10-16T05:46:26;2.00;;;1.73;;
2009;SDS011;1008;47.404;8.502;2022-10-16T05:48:52;2.03;;;1.60;;
2009;SDS011;1008;47.404;8.502;2022-10-16T05:51:19;1.80;;;1.40;;
2009;SDS011;1008;47.404;8.502;2022-10-16T05:53:48;2.03;;;1.67;;
2009;SDS011;1008;47.404;8.502;2022-10-16T05:56:15;2.07;;;1.70;;
2009;SDS011;1008;47.404;8.502;2022-10-16T05:58:42;1.70;;;1.40;;
2009;SDS011;1008;47.404;8.502;2022-10-16T06:01:09;2.20;;;2.00;;
2009;SDS011;1008;47.404;8.502;2022-10-16T06:03:37;2.60;;;1.60;;
2009;SDS011;1008;47.404;8.502;2022-10-16T06:06:08;1.53;;;1.40;;
2009;SDS011;1008;47.404;8.502;2022-10-16T06:08:36;2.27;;;1.60;;
2009;SDS011;1008;47.404;8.502;2022-10-16T06:11:05;1.70;;;1.60;;
2009;SDS011;1008;47.404;8.502;2022-10-16T06:13:33;1.80;;;1.30;;
2009;SDS011;1008;47.404;8.502;2022-10-16T06:16:00;1.67;;;1.40;;
2009;SDS011;1008;47.404;8.502;2022-10-16T06:18:30;2.00;;;1.50;;
2009;SDS011;1008;47.404;8.502;2022-10-16T06:20:57;2.63;;;1.37;;
2009;SDS011;1008;47.404;8.502;2022-10-16T06:23:24;2.03;;;1.63;;
2009;SDS011;1008;47.404;8.502;2022-10-16T06:25:51;1.87;;;1.50;;
2009;SDS011;1008;47.404;8.502;2022-10-16T06:28:19;1.40;;;1.03;;
2009;SDS011;1008;47.404;8.502;2022-10-16T06:30:46;1.23;;;1.00;;
2009;SDS011;1008;47.404;8.502;2022-10-16T06:33:13;1.93;;;1.60;;
2009;SDS011;1008;47.404;8.502;2022-10-16T06:35:42;1.47;;;1.37;;
2009;SDS011;1008;47.404;8.502;2022-10-16T06:38:09;1.30;;;1.07;;
2009;SDS011;1008;47.404;8.502;2022-10-16T06:40:36;1.67;;;1.37;;
2009;SDS011;1008;47.404;8.502;2022-10-16T06:43:02;2.50;;;1.30;;
2009;SDS011;1008;47.404;8.502;2022-10-16T06:45:33;2.23;;;1.57;;
2009;SDS011;1008;47.404;8.502;2022-10-16T06:47:59;2.93;;;1.87;;
2009;SDS011;1008;47.404;8.502;2022-10-16T06:50:26;2.47;;;1.53;;
2009;SDS011;1008;47.404;8.502;2022-10-16T06:52:53;1.40;;;1.00;;
2009;SDS011;1008;47.404;8.502;2022-10-16T06:55:20;2.50;;;1.10;;
2009;SDS011;1008;47.404;8.502;2022-10-16T06:57:47;1.90;;;1.20;;
2009;SDS011;1008;47.404;8.502;2022-10-16T07:00:14;3.07;;;1.73;;
2009;SDS011;1008;47.404;8.502;2022-10-16T07:02:43;2.07;;;1.60;;
2009;SDS011;1008;47.404;8.502;2022-10-16T07:05:09;2.40;;;1.63;;
2009;SDS011;1008;47.404;8.502;2022-10-16T07:07:36;1.77;;;1.40;;
2009;SDS011;1008;47.404;8.502;2022-10-16T07:10:03;1.90;;;1.40;;
2009;SDS011;1008;47.404;8.502;2022-10-16T07:12:30;4.30;;;1.60;;
2009;SDS011;1008;47.404;8.502;2022-10-16T07:14:57;1.87;;;1.00;;
2009;SDS011;1008;47.404;8.502;2022-10-16T07:17:24;1.30;;;1.20;;
2009;SDS011;1008;47.404;8.502;2022-10-16T07:19:52;1.97;;;1.23;;
2009;SDS011;1008;47.404;8.502;2022-10-16T07:22:20;2.63;;;1.40;;
2009;SDS011;1008;47.404;8.502;2022-10-16T07:24:47;2.53;;;1.40;;
2009;SDS011;1008;47.404;8.502;2022-10-16T07:27:14;1.67;;;1.40;;
2009;SDS011;1008;47.404;8.502;2022-10-16T07:29:41;2.37;;;1.60;;
2009;SDS011;1008;47.404;8.502;2022-10-16T07:32:08;2.40;;;1.70;;
2009;SDS011;1008;47.404;8.502;2022-10-16T07:34:35;2.90;;;1.67;;
2009;SDS011;1008;47.404;8.502;2022-10-16T07:37:03;1.97;;;1.70;;
2009;SDS011;1008;47.404;8.502;2022-10-16T07:39:30;2.10;;;1.90;;
2009;SDS011;1008;47.404;8.502;2022-10-16T07:41:56;5.80;;;2.30;;
2009;SDS011;1008;47.404;8.502;2022-10-16T07:44:23;1.67;;;1.57;;
2009;SDS011;1008;47.404;8.502;2022-10-16T07:46:50;2.00;;;1.80;;
2009;SDS011;1008;47.404;8.502;2022-10-16T07:49:16;2.47;;;2.07;;
2009;SDS011;1008;47.404;8.502;2022-10-16T07:51:43;2.10;;;1.73;;
2009;SDS011;1008;47.404;8.502;2022-10-16T07:54:11;1.97;;;1.77;;
2009;SDS011;1008;47.404;8.502;2022-10-16T07:56:38;2.20;;;1.83;;
2009;SDS011;1008;47.404;8.502;2022-10-16T07:59:05;1.80;;;1.70;;
2009;SDS011;1008;47.404;8.502;2022-10-16T08:01:31;4.23;;;2.40;;
2009;SDS011;1008;47.404;8.502;2022-10-16T08:03:58;2.27;;;2.00;;
2009;SDS011;1008;47.404;8.502;2022-10-16T08:06:25;3.30;;;2.10;;
2009;SDS011;1008;47.404;8.502;2022-10-16T08:08:52;2.60;;;1.83;;
2009;SDS011;1008;47.404;8.502;2022-10-16T08:11:20;2.13;;;1.90;;
2009;SDS011;1008;47.404;8.502;2022-10-16T08:13:47;2.90;;;2.07;;
2009;SDS011;1008;47.404;8.502;2022-10-16T08:16:14;2.40;;;1.97;;
2009;SDS011;1008;47.404;8.502;2022-10-16T08:18:42;2.07;;;1.70;;
2009;SDS011;1008;47.404;8.502;2022-10-16T08:21:11;3.20;;;2.53;;
2009;SDS011;1008;47.404;8.502;2022-10-16T08:23:39;2.37;;;1.90;;
2009;SDS011;1008;47.404;8.502;2022-10-16T08:26:07;2.50;;;2.10;;
2009;SDS011;1008;47.404;8.502;2022-10-16T08:28:36;1.73;;;1.63;;
2009;SDS011;1008;47.404;8.502;2022-10-16T08:31:06;2.33;;;2.13;;
2009;SDS011;1008;47.404;8.502;2022-10-16T08:33:34;1.90;;;1.70;;
2009;SDS011;1008;47.404;8.502;2022-10-16T08:36:02;2.27;;;1.60;;
2009;SDS011;1008;47.404;8.502;2022-10-16T08:38:29;2.30;;;1.80;;
2009;SDS011;1008;47.404;8.502;2022-10-16T08:40:57;2.40;;;1.53;;
2009;SDS011;1008;47.404;8.502;2022-10-16T08:44:00;2.00;;;1.77;;
2009;SDS011;1008;47.404;8.502;2022-10-16T08:46:47;2.33;;;1.60;;
2009;SDS011;1008;47.404;8.502;2022-10-16T08:49:22;1.83;;;1.67;;
2009;SDS011;1008;47.404;8.502;2022-10-16T08:51:49;1.87;;;1.67;;
2009;SDS011;1008;47.404;8.502;2022-10-16T08:54:28;1.70;;;1.50;;
2009;SDS011;1008;47.404;8.502;2022-10-16T08:57:00;1.40;;;1.30;;
2009;SDS011;1008;47.404;8.502;2022-10-16T08:59:36;1.20;;;1.10;;
2009;SDS011;1008;47.404;8.502;2022-10-16T09:02:03;1.40;;;1.20;;
2009;SDS011;1008;47.404;8.502;2022-10-16T09:04:54;1.23;;;1.13;;
2009;SDS011;1008;47.404;8.502;2022-10-16T09:07:54;1.10;;;0.90;;
2009;SDS011;1008;47.404;8.502;2022-10-16T09:10:31;1.20;;;0.90;;
2009;SDS011;1008;47.404;8.502;2022-10-16T09:13:10;2.50;;;1.20;;
2009;SDS011;1008;47.404;8.502;2022-10-16T09:15:46;2.47;;;1.30;;
2009;SDS011;1008;47.404;8.502;2022-10-16T09:18:19;1.80;;;1.20;;
2009;SDS011;1008;47.404;8.502;2022-10-16T09:20:53;1.30;;;1.10;;
2009;SDS011;1008;47.404;8.502;2022-10-16T09:23:25;1.10;;;0.90;;
2009;SDS011;1008;47.404;8.502;2022-10-16T09:25:54;1.33;;;1.20;;
2009;SDS011;1008;47.404;8.502;2022-10-16T09:28:23;1.37;;;1.10;;
2009;SDS011;1008;47.404;8.502;2022-10-16T09:30:51;1.63;;;1.03;;
2009;SDS011;1008;47.404;8.502;2022-10-16T09:33:20;1.40;;;1.20;;
2009;SDS011;1008;47.404;8.502;2022-10-16T09:35:50;1.50;;;1.27;;
2009;SDS011;1008;47.404;8.502;2022-10-16T09:38:23;1.30;;;1.00;;
2009;SDS011;1008;47.404;8.502;2022-10-16T09:40:52;2.03;;;1.43;;
2009;SDS011;1008;47.404;8.502;2022-10-16T09:43:21;1.73;;;1.03;;
2009;SDS011;1008;47.404;8.502;2022-10-16T09:45:57;1.67;;;1.40;;
2009;SDS011;1008;47.404;8.502;2022-10-16T09:48:25;1.50;;;1.10;;
2009;SDS011;1008;47.404;8.502;2022-10-16T09:50:57;2.80;;;1.10;;
2009;SDS011;1008;47.404;8.502;2022-10-16T09:53:26;1.83;;;1.23;;
2009;SDS011;1008;47.404;8.502;2022-10-16T09:56:07;1.30;;;1.10;;
2009;SDS011;1008;47.404;8.502;2022-10-16T09:58:35;1.13;;;0.90;;
2009;SDS011;1008;47.404;8.502;2022-10-16T10:01:04;1.10;;;0.90;;
2009;SDS011;1008;47.404;8.502;2022-10-16T10:03:33;1.40;;;1.20;;
2009;SDS011;1008;47.404;8.502;2022-10-16T10:06:05;1.77;;;1.30;;
2009;SDS011;1008;47.404;8.502;2022-10-16T10:08:40;1.70;;;1.30;;
2009;SDS011;1008;47.404;8.502;2022-10-16T10:11:08;1.50;;;1.10;;
2009;SDS011;1008;47.404;8.502;2022-10-16T10:13:34;1.20;;;0.90;;
2009;SDS011;1008;47.404;8.502;2022-10-16T10:16:01;1.20;;;1.10;;
2009;SDS011;1008;47.404;8.502;2022-10-16T10:18:29;1.53;;;1.03;;
2009;SDS011;1008;47.404;8.502;2022-10-16T10:20:57;1.17;;;0.97;;
2009;SDS011;1008;47.404;8.502;2022-10-16T10:23:25;1.37;;;1.20;;
2009;SDS011;1008;47.404;8.502;2022-10-16T10:25:55;1.27;;;1.17;;
2009;SDS011;1008;47.404;8.502;2022-10-16T10:28:32;1.40;;;1.20;;
2009;SDS011;1008;47.404;8.502;2022-10-16T10:31:13;2.17;;;1.60;;
2009;SDS011;1008;47.404;8.502;2022-10-16T10:33:47;1.77;;;1.10;;
2009;SDS011;1008;47.404;8.502;2022-10-16T10:36:22;1.23;;;1.13;;
2009;SDS011;1008;47.404;8.502;2022-10-16T10:38:57;1.70;;;1.43;;
2009;SDS011;1008;47.404;8.502;2022-10-16T10:41:35;1.47;;;1.20;;
2009;SDS011;1008;47.404;8.502;2022-10-16T10:44:24;1.50;;;1.30;;
2009;SDS011;1008;47.404;8.502;2022-10-16T10:47:04;1.40;;;1.17;;
2009;SDS011;1008;47.404;8.502;2022-10-16T10:49:41;1.17;;;1.07;;
2009;SDS011;1008;47.404;8.502;2022-10-16T10:52:24;1.43;;;1.27;;
2009;SDS011;1008;47.404;8.502;2022-10-16T10:55:09;1.60;;;1.30;;
2009;SDS011;1008;47.404;8.502;2022-10-16T10:57:46;1.50;;;1.20;;
2009;SDS011;1008;47.404;8.502;2022-10-16T11:00:23;1.87;;;1.20;;
2009;SDS011;1008;47.404;8.502;2022-10-16T11:02:57;1.90;;;1.40;;
2009;SDS011;1008;47.404;8.502;2022-10-16T11:05:41;1.33;;;1.20;;
2009;SDS011;1008;47.404;8.502;2022-10-16T11:08:11;2.50;;;1.10;;
2009;SDS011;1008;47.404;8.502;2022-10-16T11:10:45;1.50;;;1.10;;
2009;SDS011;1008;47.404;8.502;2022-10-16T11:13:18;1.50;;;1.30;;
2009;SDS011;1008;47.404;8.502;2022-10-16T11:15:58;2.70;;;1.00;;
2009;SDS011;1008;47.404;8.502;2022-10-16T11:18:30;1.60;;;1.10;;
2009;SDS011;1008;47.404;8.502;2022-10-16T11:21:13;2.30;;;1.43;;
2009;SDS011;1008;47.404;8.502;2022-10-16T11:23:45;1.10;;;1.00;;
2009;SDS011;1008;47.404;8.502;2022-10-16T11:26:18;1.60;;;1.40;;
2009;SDS011;1008;47.404;8.502;2022-10-16T11:28:48;2.43;;;1.20;;
2009;SDS011;1008;47.404;8.502;2022-10-16T11:31:17;3.90;;;1.20;;
2009;SDS011;1008;47.404;8.502;2022-10-16T11:33:51;1.70;;;1.10;;
2009;SDS011;1008;47.404;8.502;2022-10-16T11:36:27;1.20;;;1.10;;
2009;SDS011;1008;47.404;8.502;2022-10-16T11:39:00;1.83;;;1.33;;
2009;SDS011;1008;47.404;8.502;2022-10-16T11:41:35;3.20;;;1.20;;
2009;SDS011;1008;47.404;8.502;2022-10-16T11:44:12;1.80;;;1.23;;
2009;SDS011;1008;47.404;8.502;2022-10-16T11:46:52;2.10;;;1.20;;
2009;SDS011;1008;47.404;8.502;2022-10-16T11:49:27;1.60;;;1.40;;
2009;SDS011;1008;47.404;8.502;2022-10-16T11:52:01;1.67;;;1.30;;
2009;SDS011;1008;47.404;8.502;2022-10-16T11:54:35;2.10;;;1.60;;
2009;SDS011;1008;47.404;8.502;2022-10-16T11:57:08;5.13;;;1.60;;
2009;SDS011;1008;47.404;8.502;2022-10-16T11:59:40;1.90;;;1.40;;
2009;SDS011;1008;47.404;8.502;2022-10-16T12:02:25;1.90;;;1.37;;
2009;SDS011;1008;47.404;8.502;2022-10-16T12:05:13;2.03;;;1.13;;
2009;SDS011;1008;47.404;8.502;2022-10-16T12:07:48;1.53;;;1.30;;
2009;SDS011;1008;47.404;8.502;2022-10-16T12:10:21;1.70;;;1.20;;
2009;SDS011;1008;47.404;8.502;2022-10-16T12:12:49;1.50;;;1.40;;
2009;SDS011;1008;47.404;8.502;2022-10-16T12:15:22;1.40;;;1.20;;
2009;SDS011;1008;47.404;8.502;2022-10-16T12:17:50;1.63;;;1.40;;
2009;SDS011;1008;47.404;8.502;2022-10-16T12:20:20;1.20;;;1.03;;
2009;SDS011;1008;47.404;8.502;2022-10-16T12:22:52;1.90;;;1.40;;
2009;SDS011;1008;47.404;8.502;2022-10-16T12:25:21;1.50;;;1.07;;
2009;SDS011;1008;47.404;8.502;2022-10-16T12:27:55;1.50;;;1.40;;
2009;SDS011;1008;47.404;8.502;2022-10-16T12:30:24;1.60;;;1.40;;
2009;SDS011;1008;47.404;8.502;2022-10-16T12:32:53;1.30;;;1.20;;
2009;SDS011;1008;47.404;8.502;2022-10-16T12:35:22;2.77;;;1.43;;
2009;SDS011;1008;47.404;8.502;2022-10-16T12:37:52;1.60;;;1.20;;
2009;SDS011;1008;47.404;8.502;2022-10-16T12:40:25;1.40;;;1.00;;
2009;SDS011;1008;47.404;8.502;2022-10-16T12:42:54;1.43;;;1.10;;
2009;SDS011;1008;47.404;8.502;2022-10-16T12:45:23;1.73;;;1.30;;
2009;SDS011;1008;47.404;8.502;2022-10-16T12:47:53;1.40;;;1.20;;
2009;SDS011;1008;47.404;8.502;2022-10-16T12:50:23;2.00;;;1.70;;
2009;SDS011;1008;47.404;8.502;2022-10-16T12:52:53;2.47;;;1.60;;
2009;SDS011;1008;47.404;8.502;2022-10-16T12:55:21;1.60;;;1.10;;
2009;SDS011;1008;47.404;8.502;2022-10-16T12:57:56;1.40;;;1.30;;
2009;SDS011;1008;47.404;8.502;2022-10-16T13:00:38;1.20;;;1.10;;
2009;SDS011;1008;47.404;8.502;2022-10-16T13:03:23;3.87;;;1.43;;
2009;SDS011;1008;47.404;8.502;2022-10-16T13:06:25;1.57;;;1.33;;
2009;SDS011;1008;47.404;8.502;2022-10-16T13:09:07;1.83;;;1.50;;
2009;SDS011;1008;47.404;8.502;2022-10-16T13:11:57;1.33;;;1.23;;
2009;SDS011;1008;47.404;8.502;2022-10-16T13:14:44;1.73;;;1.27;;
2009;SDS011;1008;47.404;8.502;2022-10-16T13:17:22;3.30;;;1.47;;
2009;SDS011;1008;47.404;8.502;2022-10-16T13:19:56;1.50;;;1.20;;
2009;SDS011;1008;47.404;8.502;2022-10-16T13:22:31;2.70;;;1.60;;
2009;SDS011;1008;47.404;8.502;2022-10-16T13:25:13;1.90;;;1.33;;
2009;SDS011;1008;47.404;8.502;2022-10-16T13:27:46;1.60;;;1.40;;
2009;SDS011;1008;47.404;8.502;2022-10-16T13:30:20;2.17;;;1.50;;
2009;SDS011;1008;47.404;8.502;2022-10-16T13:32:50;2.37;;;1.60;;
2009;SDS011;1008;47.404;8.502;2022-10-16T13:35:22;2.53;;;1.20;;
2009;SDS011;1008;47.404;8.502;2022-10-16T13:37:49;1.40;;;1.30;;
2009;SDS011;1008;47.404;8.502;2022-10-16T13:40:22;2.00;;;1.50;;
2009;SDS011;1008;47.404;8.502;2022-10-16T13:42:50;1.40;;;1.23;;
2009;SDS011;1008;47.404;8.502;2022-10-16T13:45:19;1.90;;;1.50;;
2009;SDS011;1008;47.404;8.502;2022-10-16T13:47:47;1.80;;;1.40;;
2009;SDS011;1008;47.404;8.502;2022-10-16T13:50:15;1.57;;;1.47;;
2009;SDS011;1008;47.404;8.502;2022-10-16T13:52:43;1.70;;;1.40;;
2009;SDS011;1008;47.404;8.502;2022-10-16T13:55:10;1.80;;;1.47;;
2009;SDS011;1008;47.404;8.502;2022-10-16T13:57:39;1.37;;;1.10;;
2009;SDS011;1008;47.404;8.502;2022-10-16T14:00:20;1.20;;;1.10;;
2009;SDS011;1008;47.404;8.502;2022-10-16T14:02:50;1.83;;;1.63;;
2009;SDS011;1008;47.404;8.502;2022-10-16T14:05:23;1.43;;;1.33;;
2009;SDS011;1008;47.404;8.502;2022-10-16T14:07:50;1.80;;;1.60;;
2009;SDS011;1008;47.404;8.502;2022-10-16T14:10:20;4.03;;;2.10;;
2009;SDS011;1008;47.404;8.502;2022-10-16T14:13:00;1.60;;;1.40;;
2009;SDS011;1008;47.404;8.502;2022-10-16T14:15:29;3.43;;;1.20;;
2009;SDS011;1008;47.404;8.502;2022-10-16T14:17:57;1.63;;;1.30;;
2009;SDS011;1008;47.404;8.502;2022-10-16T14:20:25;1.60;;;1.30;;
2009;SDS011;1008;47.404;8.502;2022-10-16T14:22:58;1.73;;;1.60;;
2009;SDS011;1008;47.404;8.502;2022-10-16T14:25:27;3.43;;;1.10;;
2009;SDS011;1008;47.404;8.502;2022-10-16T14:28:00;1.80;;;1.40;;
2009;SDS011;1008;47.404;8.502;2022-10-16T14:30:28;9.23;;;1.67;;
2009;SDS011;1008;47.404;8.502;2022-10-16T14:32:57;1.47;;;1.37;;
2009;SDS011;1008;47.404;8.502;2022-10-16T14:35:26;5.43;;;1.37;;
2009;SDS011;1008;47.404;8.502;2022-10-16T14:37:54;1.40;;;1.23;;
2009;SDS011;1008;47.404;8.502;2022-10-16T14:40:23;1.67;;;1.30;;
2009;SDS011;1008;47.404;8.502;2022-10-16T14:42:51;4.10;;;1.60;;
2009;SDS011;1008;47.404;8.502;2022-10-16T14:45:21;8.40;;;1.50;;
2009;SDS011;1008;47.404;8.502;2022-10-16T14:47:50;2.40;;;1.43;;
2009;SDS011;1008;47.404;8.502;2022-10-16T14:50:20;1.70;;;1.30;;
2009;SDS011;1008;47.404;8.502;2022-10-16T14:52:47;3.00;;;1.77;;
2009;SDS011;1008;47.404;8.502;2022-10-16T14:55:14;2.37;;;1.50;;
2009;SDS011;1008;47.404;8.502;2022-10-16T14:57:42;1.57;;;1.37;;
2009;SDS011;1008;47.404;8.502;2022-10-16T15:00:13;1.87;;;1.40;;
2009;SDS011;1008;47.404;8.502;2022-10-16T15:02:44;3.00;;;1.20;;
2009;SDS011;1008;47.404;8.502;2022-10-16T15:05:13;2.03;;;1.63;;
2009;SDS011;1008;47.404;8.502;2022-10-16T15:07:42;1.40;;;1.30;;
2009;SDS011;1008;47.404;8.502;2022-10-16T15:10:09;1.60;;;1.50;;
2009;SDS011;1008;47.404;8.502;2022-10-16T15:12:36;1.63;;;1.47;;
2009;SDS011;1008;47.404;8.502;2022-10-16T15:15:23;2.13;;;1.60;;
2009;SDS011;1008;47.404;8.502;2022-10-16T15:17:57;1.87;;;1.40;;
2009;SDS011;1008;47.404;8.502;2022-10-16T15:20:26;1.50;;;1.40;;
2009;SDS011;1008;47.404;8.502;2022-10-16T15:22:55;1.87;;;1.47;;
2009;SDS011;1008;47.404;8.502;2022-10-16T15:25:32;1.60;;;1.50;;
2009;SDS011;1008;47.404;8.502;2022-10-16T15:28:01;1.70;;;1.50;;
2009;SDS011;1008;47.404;8.502;2022-10-16T15:30:29;2.20;;;1.30;;
2009;SDS011;1008;47.404;8.502;2022-10-16T15:32:57;1.70;;;1.30;;
2009;SDS011;1008;47.404;8.502;2022-10-16T15:35:24;1.37;;;1.20;;